createdAt,value
2022-09-12T00:09:03.793Z,92.10
2022-09-12T00:19:06.996Z,89.80
2022-09-12T00:29:09.056Z,89.20
2022-09-12T00:39:11.456Z,87.50
2022-09-12T00:49:23.857Z,90.10
2022-09-12T00:59:36.556Z,89.10
2022-09-12T01:09:40.776Z,90.50
2022-09-12T01:20:00.853Z,89.60
2022-09-12T01:30:09.114Z,89.80
2022-09-12T01:40:23.576Z,91.70
2022-09-12T01:50:41.074Z,89.80
2022-09-12T02:00:57.141Z,88.80
2022-09-12T02:11:20.315Z,89.70
2022-09-12T02:21:28.714Z,89.20
2022-09-12T02:31:33.876Z,90.50
2022-09-12T02:41:36.415Z,88.80
2022-09-12T02:51:40.176Z,86.90
2022-09-12T03:02:04.023Z,85.80
2022-09-12T03:12:34.976Z,86.00
2022-09-12T03:22:51.030Z,86.20
2022-09-12T03:32:56.595Z,85.60
2022-09-12T03:42:58.614Z,88.40
2022-09-12T03:53:02.415Z,87.70
2022-09-12T04:03:07.877Z,89.50
2022-09-12T04:13:10.574Z,86.90
2022-09-12T04:23:12.537Z,90.40
2022-09-12T04:43:32.816Z,83.30
2022-09-12T04:53:36.398Z,84.20
2022-09-12T05:03:41.813Z,84.70
2022-09-12T05:13:43.718Z,88.50
2022-09-12T05:23:46.156Z,85.10
2022-09-12T05:33:49.528Z,86.30
2022-09-12T05:44:03.098Z,88.30
2022-09-12T05:54:07.404Z,91.20
2022-09-12T06:04:10.424Z,91.20
2022-09-12T06:14:14.459Z,95.60
2022-09-12T06:24:16.536Z,95.70
2022-09-12T06:34:19.396Z,98.30
2022-09-12T06:44:25.680Z,99.90
2022-09-12T06:54:29.155Z,99.90
2022-09-12T07:04:31.405Z,97.90
2022-09-12T07:14:33.460Z,94.40
2022-09-12T07:24:35.482Z,94.50
2022-09-12T07:34:38.214Z,93.20
2022-09-12T07:44:40.179Z,88.40
2022-09-12T07:54:42.417Z,86.20
2022-09-12T08:04:47.615Z,82.80
2022-09-12T08:14:50.198Z,74.30
2022-09-12T08:24:52.898Z,75.50
2022-09-12T08:34:55.495Z,69.80
2022-09-12T08:45:09.975Z,68.40
2022-09-12T08:55:54.059Z,55.10
2022-09-12T09:06:22.543Z,54.70
2022-09-12T09:16:41.118Z,48.40
2022-09-12T09:26:46.081Z,48.00
2022-09-12T09:36:52.978Z,46.50
2022-09-12T09:47:03.138Z,41.20
2022-09-12T09:57:07.078Z,37.80
2022-09-12T10:07:09.396Z,37.30
2022-09-12T10:17:34.818Z,31.20
2022-09-12T10:27:38.435Z,25.40
2022-09-12T10:37:42.153Z,23.60
2022-09-12T10:47:44.315Z,25.10
2022-09-12T10:58:06.936Z,22.80
2022-09-12T11:08:27.606Z,21.30
2022-09-12T11:19:10.113Z,17.70
2022-09-12T11:29:20.534Z,16.90
2022-09-12T11:39:43.303Z,17.80
2022-09-12T11:49:53.695Z,16.40
2022-09-12T12:00:10.001Z,15.10
2022-09-12T12:10:45.716Z,14.90
2022-09-12T12:20:50.100Z,12.10
2022-09-12T12:31:00.434Z,11.60
2022-09-12T12:41:22.356Z,11.60
2022-09-12T12:51:39.419Z,11.10
2022-09-12T13:02:02.526Z,11.10
2022-09-12T13:12:13.660Z,12.20
2022-09-12T13:22:16.294Z,10.40
2022-09-12T13:32:20.739Z,11.00
2022-09-12T13:42:46.614Z,11.90
2022-09-12T13:52:56.839Z,10.20
2022-09-12T14:03:18.078Z,9.50
2022-09-12T14:13:28.715Z,9.90
2022-09-12T14:23:34.031Z,10.50
2022-09-12T14:33:50.416Z,11.20
2022-09-12T14:44:00.157Z,10.20
2022-09-12T14:54:02.715Z,12.10
2022-09-12T15:04:04.862Z,11.50
2022-09-12T15:14:17.278Z,10.20
2022-09-12T15:24:19.475Z,8.20
2022-09-12T15:34:22.032Z,9.60
2022-09-12T15:44:25.738Z,11.30
2022-09-12T15:54:27.416Z,9.50
2022-09-12T16:04:32.914Z,9.60
2022-09-12T16:14:36.036Z,9.40
2022-09-12T16:24:37.975Z,9.50
2022-09-12T16:34:40.242Z,11.10
2022-09-12T16:44:50.554Z,12.00
2022-09-12T16:54:57.417Z,11.00
2022-09-12T17:04:59.458Z,13.00
2022-09-12T17:15:01.271Z,14.90
2022-09-12T17:25:03.312Z,23.50
2022-09-12T17:35:05.550Z,30.00
2022-09-12T17:45:09.071Z,27.00
2022-09-12T17:55:11.197Z,36.40
2022-09-12T18:05:12.975Z,38.40
2022-09-12T18:15:15.015Z,39.10
2022-09-12T18:25:17.677Z,42.80
2022-09-12T18:35:21.773Z,46.90
2022-09-12T18:45:23.895Z,49.90
2022-09-12T18:55:26.136Z,51.00
2022-09-12T19:05:28.215Z,53.90
2022-09-12T19:15:30.333Z,47.30
2022-09-12T19:25:32.198Z,53.40
2022-09-12T19:35:35.854Z,54.00
2022-09-12T19:45:38.055Z,54.00
2022-09-12T19:55:44.776Z,54.60
2022-09-12T20:05:46.455Z,55.20
2022-09-12T20:15:50.336Z,53.60
2022-09-12T20:25:55.856Z,56.00
2022-09-12T20:36:30.950Z,59.40
2022-09-12T20:46:33.581Z,59.10
2022-09-12T20:56:41.552Z,55.80
2022-09-12T21:06:44.952Z,57.60
2022-09-12T21:16:47.250Z,59.20
2022-09-12T21:26:50.432Z,59.00
2022-09-12T21:36:53.554Z,58.20
2022-09-12T21:46:55.712Z,63.00
2022-09-12T21:56:57.933Z,64.60
2022-09-12T22:07:00.572Z,66.80
2022-09-12T22:17:03.052Z,67.20
2022-09-12T22:27:11.154Z,70.80
2022-09-12T22:37:13.932Z,71.60
2022-09-12T22:47:16.374Z,69.10
2022-09-12T22:57:18.634Z,72.60
2022-09-12T23:07:20.754Z,72.70
2022-09-12T23:17:22.996Z,75.30
2022-09-12T23:27:25.313Z,76.20
2022-09-12T23:37:29.814Z,77.50
2022-09-12T23:47:32.496Z,77.80
2022-09-12T23:57:34.511Z,74.50
